sensor_id;sensor_type;location;lat;lon;timestamp;pressure;altitude;pressure_sealevel;temperature;humidity
11049;BME280;5577;42.706;23.160;2023-02-19T00:02:46;94399.19;;;10.79;47.35
11049;BME280;5577;42.706;23.160;2023-02-19T00:05:30;94400.28;;;10.78;47.21
11049;BME280;5577;42.706;23.160;2023-02-19T00:08:14;94387.03;;;10.78;47.63
11049;BME280;5577;42.706;23.160;2023-02-19T00:11:18;94355.06;;;10.55;47.34
11049;BME280;5577;42.706;23.160;2023-02-19T00:14:03;94377.31;;;10.82;47.19
11049;BME280;5577;42.706;23.160;2023-02-19T00:16:48;94380.91;;;10.89;47.36
11049;BME280;5577;42.706;23.160;2023-02-19T00:19:32;94371.31;;;10.85;47.41
11049;BME280;5577;42.706;23.160;2023-02-19T00:22:16;94374.75;;;10.70;47.64
11049;BME280;5577;42.706;23.160;2023-02-19T00:25:00;94371.47;;;10.61;48.01
11049;BME280;5577;42.706;23.160;2023-02-19T00:27:43;94370.88;;;10.52;48.45
11049;BME280;5577;42.706;23.160;2023-02-19T00:30:27;94369.97;;;10.32;49.03
11049;BME280;5577;42.706;23.160;2023-02-19T00:33:11;94365.88;;;10.35;48.90
11049;BME280;5577;42.706;23.160;2023-02-19T00:35:59;94367.41;;;10.36;48.89
11049;BME280;5577;42.706;23.160;2023-02-19T00:38:43;94366.69;;;10.23;49.42
11049;BME280;5577;42.706;23.160;2023-02-19T00:41:28;94373.81;;;9.95;50.12
11049;BME280;5577;42.706;23.160;2023-02-19T00:44:13;94366.94;;;9.79;50.67
11049;BME280;5577;42.706;23.160;2023-02-19T00:46:58;94364.31;;;9.67;51.00
11049;BME280;5577;42.706;23.160;2023-02-19T00:49:42;94362.22;;;9.72;50.95
11049;BME280;5577;42.706;23.160;2023-02-19T00:52:25;94333.75;;;9.81;50.77
11049;BME280;5577;42.706;23.160;2023-02-19T00:55:09;94325.28;;;9.88;50.32
11049;BME280;5577;42.706;23.160;2023-02-19T00:57:53;94326.69;;;10.40;48.85
11049;BME280;5577;42.706;23.160;2023-02-19T01:00:37;94321.09;;;10.88;47.20
11049;BME280;5577;42.706;23.160;2023-02-19T01:03:21;94321.25;;;11.26;46.29
11049;BME280;5577;42.706;23.160;2023-02-19T01:06:08;94321.41;;;11.33;46.16
11049;BME280;5577;42.706;23.160;2023-02-19T01:08:52;94330.34;;;11.44;45.78
11049;BME280;5577;42.706;23.160;2023-02-19T01:11:36;94329.38;;;11.52;45.54
11049;BME280;5577;42.706;23.160;2023-02-19T01:14:20;94316.91;;;11.53;45.31
11049;BME280;5577;42.706;23.160;2023-02-19T01:17:04;94312.78;;;11.55;45.32
11049;BME280;5577;42.706;23.160;2023-02-19T01:19:48;94332.13;;;11.56;45.56
11049;BME280;5577;42.706;23.160;2023-02-19T01:22:31;94334.31;;;11.35;46.00
11049;BME280;5577;42.706;23.160;2023-02-19T01:25:15;94342.63;;;11.02;46.94
11049;BME280;5577;42.706;23.160;2023-02-19T01:27:59;94343.81;;;10.89;47.35
11049;BME280;5577;42.706;23.160;2023-02-19T01:30:43;94342.63;;;10.87;47.37
11049;BME280;5577;42.706;23.160;2023-02-19T01:33:27;94339.47;;;10.81;47.29
11049;BME280;5577;42.706;23.160;2023-02-19T01:36:12;94358.00;;;10.66;47.83
11049;BME280;5577;42.706;23.160;2023-02-19T01:38:58;94377.13;;;10.59;48.19
11049;BME280;5577;42.706;23.160;2023-02-19T01:41:42;94378.81;;;10.52;48.23
11049;BME280;5577;42.706;23.160;2023-02-19T01:47:10;94390.84;;;10.49;48.04
11049;BME280;5577;42.706;23.160;2023-02-19T01:49:55;94389.38;;;10.95;46.65
11049;BME280;5577;42.706;23.160;2023-02-19T01:52:40;94380.81;;;11.32;45.70
11049;BME280;5577;42.706;23.160;2023-02-19T01:55:24;94394.22;;;11.39;45.75
11049;BME280;5577;42.706;23.160;2023-02-19T01:58:09;94388.09;;;11.04;47.09
11049;BME280;5577;42.706;23.160;2023-02-19T02:00:53;94361.09;;;10.40;48.21
11049;BME280;5577;42.706;23.160;2023-02-19T02:03:39;94373.63;;;10.28;48.86
11049;BME280;5577;42.706;23.160;2023-02-19T02:06:35;94381.13;;;9.86;50.12
11049;BME280;5577;42.706;23.160;2023-02-19T02:09:26;94373.25;;;9.62;50.74
11049;BME280;5577;42.706;23.160;2023-02-19T02:12:29;94371.75;;;9.37;51.65
11049;BME280;5577;42.706;23.160;2023-02-19T02:15:14;94362.06;;;9.05;52.70
11049;BME280;5577;42.706;23.160;2023-02-19T02:21:22;94374.81;;;8.91;53.50
11049;BME280;5577;42.706;23.160;2023-02-19T02:36:19;94382.56;;;8.63;54.96
11049;BME280;5577;42.706;23.160;2023-02-19T02:39:07;94385.19;;;8.51;55.50
11049;BME280;5577;42.706;23.160;2023-02-19T02:41:58;94384.50;;;8.42;56.04
11049;BME280;5577;42.706;23.160;2023-02-19T02:48:48;94378.97;;;8.35;56.65
11049;BME280;5577;42.706;23.160;2023-02-19T02:51:44;94378.97;;;8.35;56.61
11049;BME280;5577;42.706;23.160;2023-02-19T02:54:31;94373.91;;;8.30;57.04
11049;BME280;5577;42.706;23.160;2023-02-19T02:57:35;94357.34;;;8.42;56.14
11049;BME280;5577;42.706;23.160;2023-02-19T03:00:20;94368.53;;;8.71;55.62
11049;BME280;5577;42.706;23.160;2023-02-19T03:03:05;94385.38;;;9.15;54.39
11049;BME280;5577;42.706;23.160;2023-02-19T03:05:51;94366.34;;;8.98;54.45
11049;BME280;5577;42.706;23.160;2023-02-19T03:08:43;94371.19;;;9.32;53.74
11049;BME280;5577;42.706;23.160;2023-02-19T03:11:30;94372.53;;;9.77;52.25
11049;BME280;5577;42.706;23.160;2023-02-19T03:14:41;94381.53;;;9.88;51.86
11049;BME280;5577;42.706;23.160;2023-02-19T03:17:48;94340.53;;;9.67;51.42
11049;BME280;5577;42.706;23.160;2023-02-19T03:20:55;94389.75;;;10.23;50.76
11049;BME280;5577;42.706;23.160;2023-02-19T03:23:41;94392.09;;;10.40;50.30
11049;BME280;5577;42.706;23.160;2023-02-19T03:26:45;94392.81;;;10.52;49.77
11049;BME280;5577;42.706;23.160;2023-02-19T03:29:38;94399.16;;;10.63;49.26
11049;BME280;5577;42.706;23.160;2023-02-19T03:32:31;94404.44;;;10.36;50.27
11049;BME280;5577;42.706;23.160;2023-02-19T03:35:25;94411.69;;;9.99;50.97
11049;BME280;5577;42.706;23.160;2023-02-19T03:42:04;94420.41;;;10.00;51.36
11049;BME280;5577;42.706;23.160;2023-02-19T04:00:27;94441.72;;;9.79;51.55
11049;BME280;5577;42.706;23.160;2023-02-19T04:06:16;94395.19;;;9.27;52.63
11049;BME280;5577;42.706;23.160;2023-02-19T04:09:05;94440.88;;;9.51;52.57
11049;BME280;5577;42.706;23.160;2023-02-19T04:11:52;94432.72;;;9.44;52.78
11049;BME280;5577;42.706;23.160;2023-02-19T04:14:51;94433.38;;;9.65;52.40
11049;BME280;5577;42.706;23.160;2023-02-19T04:17:44;94429.31;;;9.56;52.32
11049;BME280;5577;42.706;23.160;2023-02-19T04:20:35;94442.06;;;9.66;52.36
11049;BME280;5577;42.706;23.160;2023-02-19T04:23:23;94396.06;;;9.07;52.92
11049;BME280;5577;42.706;23.160;2023-02-19T04:26:10;94398.44;;;8.75;54.06
11049;BME280;5577;42.706;23.160;2023-02-19T04:28:55;94444.91;;;9.01;54.42
11049;BME280;5577;42.706;23.160;2023-02-19T04:31:39;94455.56;;;9.04;54.31
11049;BME280;5577;42.706;23.160;2023-02-19T04:34:23;94455.78;;;8.87;55.00
11049;BME280;5577;42.706;23.160;2023-02-19T04:37:07;94460.41;;;8.57;55.77
11049;BME280;5577;42.706;23.160;2023-02-19T04:39:51;94454.38;;;8.36;56.75
11049;BME280;5577;42.706;23.160;2023-02-19T04:42:35;94470.47;;;8.43;56.87
11049;BME280;5577;42.706;23.160;2023-02-19T04:45:19;94473.50;;;8.33;57.48
11049;BME280;5577;42.706;23.160;2023-02-19T04:48:03;94478.59;;;8.09;58.26
11049;BME280;5577;42.706;23.160;2023-02-19T04:50:47;94473.34;;;7.89;59.51
11049;BME280;5577;42.706;23.160;2023-02-19T04:53:32;94479.50;;;7.93;59.81
11049;BME280;5577;42.706;23.160;2023-02-19T04:56:16;94476.50;;;8.03;59.66
11049;BME280;5577;42.706;23.160;2023-02-19T04:59:01;94478.03;;;8.04;59.68
11049;BME280;5577;42.706;23.160;2023-02-19T05:01:45;94483.66;;;7.73;61.04
11049;BME280;5577;42.706;23.160;2023-02-19T05:04:29;94482.25;;;7.47;62.60
11049;BME280;5577;42.706;23.160;2023-02-19T05:07:13;94480.47;;;7.59;63.00
11049;BME280;5577;42.706;23.160;2023-02-19T05:09:57;94468.56;;;7.82;61.91
11049;BME280;5577;42.706;23.160;2023-02-19T05:12:42;94480.28;;;8.14;61.24
11049;BME280;5577;42.706;23.160;2023-02-19T05:15:26;94468.97;;;8.13;60.71
11049;BME280;5577;42.706;23.160;2023-02-19T05:18:10;94489.47;;;8.08;61.02
11049;BME280;5577;42.706;23.160;2023-02-19T05:20:56;94493.88;;;8.24;60.59
11049;BME280;5577;42.706;23.160;2023-02-19T05:23:40;94487.06;;;8.44;59.87
11049;BME280;5577;42.706;23.160;2023-02-19T05:26:25;94494.72;;;8.37;60.13
11049;BME280;5577;42.706;23.160;2023-02-19T05:29:09;94483.38;;;8.16;60.52
11049;BME280;5577;42.706;23.160;2023-02-19T05:31:53;94472.50;;;7.97;61.60
11049;BME280;5577;42.706;23.160;2023-02-19T05:34:37;94500.28;;;7.94;62.10
11049;BME280;5577;42.706;23.160;2023-02-19T05:37:21;94501.03;;;7.66;63.46
11049;BME280;5577;42.706;23.160;2023-02-19T05:40:05;94508.31;;;7.69;64.27
11049;BME280;5577;42.706;23.160;2023-02-19T05:42:49;94501.38;;;7.64;64.53
11049;BME280;5577;42.706;23.160;2023-02-19T05:45:34;94509.72;;;7.66;65.04
11049;BME280;5577;42.706;23.160;2023-02-19T05:48:18;94505.06;;;7.72;65.00
11049;BME280;5577;42.706;23.160;2023-02-19T05:51:07;94502.59;;;7.67;65.00
11049;BME280;5577;42.706;23.160;2023-02-19T05:53:51;94513.31;;;7.62;65.74
11049;BME280;5577;42.706;23.160;2023-02-19T05:56:40;94502.53;;;7.46;66.76
11049;BME280;5577;42.706;23.160;2023-02-19T05:59:25;94516.00;;;7.53;67.54
11049;BME280;5577;42.706;23.160;2023-02-19T06:02:11;94500.31;;;7.57;67.54
11049;BME280;5577;42.706;23.160;2023-02-19T06:04:55;94524.81;;;7.86;66.90
11049;BME280;5577;42.706;23.160;2023-02-19T06:07:39;94536.88;;;7.96;66.12
11049;BME280;5577;42.706;23.160;2023-02-19T06:10:25;94550.47;;;7.98;66.73
11049;BME280;5577;42.706;23.160;2023-02-19T06:13:10;94548.47;;;7.95;66.18
11049;BME280;5577;42.706;23.160;2023-02-19T06:15:54;94540.25;;;7.96;66.75
11049;BME280;5577;42.706;23.160;2023-02-19T06:18:39;94533.97;;;8.38;65.89
11049;BME280;5577;42.706;23.160;2023-02-19T06:21:24;94542.91;;;8.87;63.37
11049;BME280;5577;42.706;23.160;2023-02-19T06:24:08;94529.78;;;9.23;61.67
11049;BME280;5577;42.706;23.160;2023-02-19T06:26:53;94544.00;;;9.31;60.83
11049;BME280;5577;42.706;23.160;2023-02-19T06:29:36;94537.00;;;9.47;60.40
11049;BME280;5577;42.706;23.160;2023-02-19T06:32:21;94547.91;;;9.69;59.42
11049;BME280;5577;42.706;23.160;2023-02-19T06:35:06;94536.44;;;9.53;59.05
11049;BME280;5577;42.706;23.160;2023-02-19T06:37:50;94537.41;;;9.25;60.14
11049;BME280;5577;42.706;23.160;2023-02-19T06:40:34;94546.69;;;9.10;60.77
11049;BME280;5577;42.706;23.160;2023-02-19T06:43:18;94547.97;;;9.37;60.35
11049;BME280;5577;42.706;23.160;2023-02-19T06:46:04;94551.88;;;9.51;59.57
11049;BME280;5577;42.706;23.160;2023-02-19T06:48:48;94547.31;;;9.40;59.82
11049;BME280;5577;42.706;23.160;2023-02-19T06:51:33;94544.31;;;9.29;60.24
11049;BME280;5577;42.706;23.160;2023-02-19T06:54:17;94542.91;;;9.32;60.10
11049;BME280;5577;42.706;23.160;2023-02-19T06:57:01;94548.66;;;9.46;60.19
11049;BME280;5577;42.706;23.160;2023-02-19T06:59:45;94551.31;;;9.58;60.23
11049;BME280;5577;42.706;23.160;2023-02-19T07:02:29;94552.75;;;9.67;59.34
11049;BME280;5577;42.706;23.160;2023-02-19T07:05:13;94557.94;;;9.76;58.48
11049;BME280;5577;42.706;23.160;2023-02-19T07:07:57;94544.19;;;9.82;58.37
11049;BME280;5577;42.706;23.160;2023-02-19T07:10:41;94545.19;;;10.02;58.12
11049;BME280;5577;42.706;23.160;2023-02-19T07:13:25;94545.31;;;10.17;56.96
11049;BME280;5577;42.706;23.160;2023-02-19T07:16:10;94549.91;;;10.32;57.23
11049;BME280;5577;42.706;23.160;2023-02-19T07:18:58;94542.25;;;10.55;56.35
11049;BME280;5577;42.706;23.160;2023-02-19T07:21:43;94528.63;;;10.96;55.57
11049;BME280;5577;42.706;23.160;2023-02-19T07:24:27;94526.56;;;11.32;54.31
11049;BME280;5577;42.706;23.160;2023-02-19T07:27:10;94533.56;;;11.68;53.70
11049;BME280;5577;42.706;23.160;2023-02-19T07:29:54;94529.88;;;12.04;52.43
11049;BME280;5577;42.706;23.160;2023-02-19T07:32:41;94529.59;;;12.24;51.79
11049;BME280;5577;42.706;23.160;2023-02-19T07:35:27;94533.75;;;12.25;51.08
11049;BME280;5577;42.706;23.160;2023-02-19T07:38:13;94534.50;;;12.41;50.61
11049;BME280;5577;42.706;23.160;2023-02-19T07:40:59;94526.75;;;12.52;49.94
11049;BME280;5577;42.706;23.160;2023-02-19T07:43:44;94524.69;;;12.61;49.39
11049;BME280;5577;42.706;23.160;2023-02-19T07:46:28;94531.19;;;12.63;49.23
11049;BME280;5577;42.706;23.160;2023-02-19T07:49:12;94525.59;;;12.87;48.99
11049;BME280;5577;42.706;23.160;2023-02-19T07:51:56;94522.06;;;12.99;48.61
11049;BME280;5577;42.706;23.160;2023-02-19T07:54:40;94521.28;;;12.98;48.16
11049;BME280;5577;42.706;23.160;2023-02-19T07:57:26;94523.44;;;12.93;48.66
11049;BME280;5577;42.706;23.160;2023-02-19T08:00:11;94506.53;;;12.82;48.13
11049;BME280;5577;42.706;23.160;2023-02-19T08:02:55;94484.47;;;12.81;48.65
11049;BME280;5577;42.706;23.160;2023-02-19T08:05:43;94523.78;;;13.10;48.33
11049;BME280;5577;42.706;23.160;2023-02-19T08:08:28;94495.66;;;13.28;48.09
11049;BME280;5577;42.706;23.160;2023-02-19T08:11:11;94518.13;;;13.76;47.47
11049;BME280;5577;42.706;23.160;2023-02-19T08:14:15;94477.53;;;13.56;46.38
11049;BME280;5577;42.706;23.160;2023-02-19T08:16:59;94518.13;;;13.53;46.97
11049;BME280;5577;42.706;23.160;2023-02-19T08:19:43;94529.28;;;13.85;47.17
11049;BME280;5577;42.706;23.160;2023-02-19T08:22:27;94511.72;;;13.80;46.45
11049;BME280;5577;42.706;23.160;2023-02-19T08:25:11;94532.59;;;14.01;46.59
11049;BME280;5577;42.706;23.160;2023-02-19T08:27:55;94499.56;;;13.79;46.06
11049;BME280;5577;42.706;23.160;2023-02-19T08:30:41;94517.38;;;14.24;46.31
11049;BME280;5577;42.706;23.160;2023-02-19T08:33:28;94521.03;;;14.42;45.45
11049;BME280;5577;42.706;23.160;2023-02-19T08:36:12;94523.72;;;13.93;46.50
11049;BME280;5577;42.706;23.160;2023-02-19T08:38:57;94507.94;;;14.04;46.57
11049;BME280;5577;42.706;23.160;2023-02-19T08:41:40;94522.00;;;14.04;46.62
11049;BME280;5577;42.706;23.160;2023-02-19T08:44:24;94518.06;;;14.21;46.74
11049;BME280;5577;42.706;23.160;2023-02-19T08:47:08;94508.31;;;14.06;46.34
11049;BME280;5577;42.706;23.160;2023-02-19T08:49:52;94494.97;;;14.25;45.71
11049;BME280;5577;42.706;23.160;2023-02-19T08:52:36;94511.84;;;14.36;46.25
11049;BME280;5577;42.706;23.160;2023-02-19T08:55:21;94410.69;;;14.13;45.53
11049;BME280;5577;42.706;23.160;2023-02-19T08:58:04;94492.03;;;14.63;45.60
11049;BME280;5577;42.706;23.160;2023-02-19T09:00:48;94489.81;;;15.02;44.84
11049;BME280;5577;42.706;23.160;2023-02-19T09:03:32;94480.06;;;15.53;43.81
11049;BME280;5577;42.706;23.160;2023-02-19T09:06:18;94482.72;;;15.93;43.57
11049;BME280;5577;42.706;23.160;2023-02-19T09:09:03;94470.69;;;16.20;43.07
11049;BME280;5577;42.706;23.160;2023-02-19T09:11:47;94474.78;;;16.64;41.65
11049;BME280;5577;42.706;23.160;2023-02-19T09:14:32;94435.50;;;16.86;41.32
11049;BME280;5577;42.706;23.160;2023-02-19T09:17:17;94455.19;;;17.50;39.87
11049;BME280;5577;42.706;23.160;2023-02-19T09:20:01;94477.22;;;17.01;40.92
11049;BME280;5577;42.706;23.160;2023-02-19T09:22:45;94470.13;;;17.82;40.13
11049;BME280;5577;42.706;23.160;2023-02-19T09:25:29;94475.84;;;17.91;39.65
11049;BME280;5577;42.706;23.160;2023-02-19T09:28:13;94472.44;;;17.84;39.68
11049;BME280;5577;42.706;23.160;2023-02-19T09:31:06;94472.72;;;17.37;39.85
11049;BME280;5577;42.706;23.160;2023-02-19T09:33:50;94474.22;;;17.20;40.40
11049;BME280;5577;42.706;23.160;2023-02-19T09:36:34;94473.16;;;17.63;39.80
11049;BME280;5577;42.706;23.160;2023-02-19T09:39:18;94468.59;;;17.74;38.91
11049;BME280;5577;42.706;23.160;2023-02-19T09:42:21;94472.78;;;17.65;38.14
11049;BME280;5577;42.706;23.160;2023-02-19T09:45:12;94472.00;;;17.54;38.28
11049;BME280;5577;42.706;23.160;2023-02-19T09:47:59;94473.53;;;17.62;38.34
11049;BME280;5577;42.706;23.160;2023-02-19T09:50:46;94444.91;;;19.18;36.57
11049;BME280;5577;42.706;23.160;2023-02-19T09:53:39;94438.03;;;19.75;35.70
11049;BME280;5577;42.706;23.160;2023-02-19T09:56:25;94433.06;;;20.89;34.07
11049;BME280;5577;42.706;23.160;2023-02-19T09:59:20;94431.88;;;20.90;33.17
11049;BME280;5577;42.706;23.160;2023-02-19T10:02:22;94422.47;;;21.08;32.91
11049;BME280;5577;42.706;23.160;2023-02-19T10:05:11;94417.97;;;21.81;31.88
11049;BME280;5577;42.706;23.160;2023-02-19T10:07:56;94417.34;;;21.70;31.77
11049;BME280;5577;42.706;23.160;2023-02-19T10:10:42;94410.78;;;22.99;30.48
11049;BME280;5577;42.706;23.160;2023-02-19T10:13:50;94388.59;;;24.39;28.46
11049;BME280;5577;42.706;23.160;2023-02-19T10:16:42;94397.94;;;23.74;28.09
11049;BME280;5577;42.706;23.160;2023-02-19T10:19:28;94382.31;;;23.50;28.86
11049;BME280;5577;42.706;23.160;2023-02-19T10:22:12;94374.47;;;23.55;28.41
11049;BME280;5577;42.706;23.160;2023-02-19T10:24:56;94382.56;;;23.55;28.38
11049;BME280;5577;42.706;23.160;2023-02-19T10:27:42;94365.25;;;23.01;29.07
11049;BME280;5577;42.706;23.160;2023-02-19T10:30:30;94371.25;;;24.08;28.06
11049;BME280;5577;42.706;23.160;2023-02-19T10:33:15;94361.84;;;23.33;28.42
11049;BME280;5577;42.706;23.160;2023-02-19T10:36:02;94353.47;;;23.91;28.12
11049;BME280;5577;42.706;23.160;2023-02-19T10:38:47;94352.50;;;24.58;27.43
11049;BME280;5577;42.706;23.160;2023-02-19T10:41:31;94340.06;;;25.40;26.67
11049;BME280;5577;42.706;23.160;2023-02-19T10:44:20;94319.88;;;25.66;25.62
11049;BME280;5577;42.706;23.160;2023-02-19T10:47:05;94334.03;;;25.95;25.67
11049;BME280;5577;42.706;23.160;2023-02-19T10:49:50;94324.34;;;24.97;26.04
11049;BME280;5577;42.706;23.160;2023-02-19T10:52:36;94325.19;;;26.16;25.39
11049;BME280;5577;42.706;23.160;2023-02-19T10:55:34;94321.66;;;25.47;25.31
11049;BME280;5577;42.706;23.160;2023-02-19T10:58:23;94310.47;;;25.33;25.49
11049;BME280;5577;42.706;23.160;2023-02-19T11:04:16;94295.75;;;25.34;25.07
11049;BME280;5577;42.706;23.160;2023-02-19T11:07:10;94290.25;;;26.61;24.76
11049;BME280;5577;42.706;23.160;2023-02-19T11:09:58;94276.63;;;26.30;24.05
11049;BME280;5577;42.706;23.160;2023-02-19T11:12:46;94279.78;;;25.23;24.97
11049;BME280;5577;42.706;23.160;2023-02-19T11:15:33;94256.66;;;26.67;23.70
11049;BME280;5577;42.706;23.160;2023-02-19T11:18:26;94262.69;;;26.19;23.76
11049;BME280;5577;42.706;23.160;2023-02-19T11:21:26;94247.56;;;26.92;23.61
11049;BME280;5577;42.706;23.160;2023-02-19T11:24:33;94242.81;;;27.81;22.43
11049;BME280;5577;42.706;23.160;2023-02-19T11:27:21;94235.25;;;27.76;21.93
11049;BME280;5577;42.706;23.160;2023-02-19T11:39:02;94228.19;;;28.14;22.00
11049;BME280;5577;42.706;23.160;2023-02-19T11:42:28;94209.13;;;25.30;23.50
11049;BME280;5577;42.706;23.160;2023-02-19T11:45:25;94212.50;;;24.46;24.79
11049;BME280;5577;42.706;23.160;2023-02-19T11:57:40;94198.38;;;21.24;29.10
11049;BME280;5577;42.706;23.160;2023-02-19T12:00:28;94182.41;;;20.87;29.07
11049;BME280;5577;42.706;23.160;2023-02-19T12:06:25;94184.63;;;20.46;30.29
11049;BME280;5577;42.706;23.160;2023-02-19T12:09:13;94179.88;;;20.27;30.12
11049;BME280;5577;42.706;23.160;2023-02-19T12:27:31;94141.88;;;25.03;24.88
11049;BME280;5577;42.706;23.160;2023-02-19T12:43:23;94115.91;;;26.84;22.75
11049;BME280;5577;42.706;23.160;2023-02-19T12:46:12;94098.88;;;26.92;22.38
11049;BME280;5577;42.706;23.160;2023-02-19T12:49:38;94088.94;;;26.89;22.41
11049;BME280;5577;42.706;23.160;2023-02-19T12:52:27;94094.38;;;26.98;22.85
11049;BME280;5577;42.706;23.160;2023-02-19T12:55:21;94055.00;;;27.21;21.94
11049;BME280;5577;42.706;23.160;2023-02-19T12:58:12;94075.38;;;27.89;21.49
11049;BME280;5577;42.706;23.160;2023-02-19T13:00:59;94075.53;;;27.76;21.51
11049;BME280;5577;42.706;23.160;2023-02-19T13:03:49;94067.84;;;27.29;21.42
11049;BME280;5577;42.706;23.160;2023-02-19T13:06:41;94068.09;;;27.13;21.96
11049;BME280;5577;42.706;23.160;2023-02-19T13:09:42;94067.53;;;27.27;21.93
11049;BME280;5577;42.706;23.160;2023-02-19T13:12:37;94058.47;;;27.30;21.40
11049;BME280;5577;42.706;23.160;2023-02-19T13:15:39;94048.50;;;27.64;21.49
11049;BME280;5577;42.706;23.160;2023-02-19T13:18:38;94045.03;;;29.78;20.33
11049;BME280;5577;42.706;23.160;2023-02-19T13:21:29;94047.41;;;27.79;21.25
11049;BME280;5577;42.706;23.160;2023-02-19T13:24:36;94010.44;;;28.70;20.54
11049;BME280;5577;42.706;23.160;2023-02-19T13:27:33;94022.84;;;28.39;20.74
11049;BME280;5577;42.706;23.160;2023-02-19T13:33:53;94018.53;;;28.23;20.63
11049;BME280;5577;42.706;23.160;2023-02-19T13:36:42;94010.75;;;30.90;18.68
11049;BME280;5577;42.706;23.160;2023-02-19T13:39:26;94006.31;;;30.93;18.33
11049;BME280;5577;42.706;23.160;2023-02-19T13:42:23;94006.63;;;30.26;18.79
11049;BME280;5577;42.706;23.160;2023-02-19T13:45:20;93992.41;;;32.92;17.13
11049;BME280;5577;42.706;23.160;2023-02-19T13:48:27;93996.91;;;29.23;19.28
11049;BME280;5577;42.706;23.160;2023-02-19T13:54:13;94001.38;;;23.34;25.30
11049;BME280;5577;42.706;23.160;2023-02-19T14:03:45;93988.84;;;20.37;29.50
11049;BME280;5577;42.706;23.160;2023-02-19T14:09:47;93984.94;;;20.19;29.71
11049;BME280;5577;42.706;23.160;2023-02-19T14:12:33;93974.75;;;20.53;29.34
11049;BME280;5577;42.706;23.160;2023-02-19T14:21:42;93959.13;;;23.90;25.55
11049;BME280;5577;42.706;23.160;2023-02-19T14:24:28;93961.97;;;23.61;25.22
11049;BME280;5577;42.706;23.160;2023-02-19T14:27:12;93956.44;;;24.15;25.03
11049;BME280;5577;42.706;23.160;2023-02-19T14:29:57;93916.47;;;24.31;24.56
11049;BME280;5577;42.706;23.160;2023-02-19T14:32:42;93951.59;;;23.47;25.09
11049;BME280;5577;42.706;23.160;2023-02-19T14:35:40;93951.19;;;22.34;26.73
11049;BME280;5577;42.706;23.160;2023-02-19T14:38:30;93954.47;;;21.62;27.26
11049;BME280;5577;42.706;23.160;2023-02-19T14:41:16;93941.31;;;20.93;28.19
11049;BME280;5577;42.706;23.160;2023-02-19T14:44:01;93944.91;;;21.06;28.05
11049;BME280;5577;42.706;23.160;2023-02-19T14:46:58;93940.44;;;20.99;28.23
11049;BME280;5577;42.706;23.160;2023-02-19T14:49:48;93929.09;;;21.43;27.98
11049;BME280;5577;42.706;23.160;2023-02-19T14:52:44;93936.06;;;21.41;28.08
11049;BME280;5577;42.706;23.160;2023-02-19T14:55:35;93917.72;;;21.00;28.06
11049;BME280;5577;42.706;23.160;2023-02-19T14:58:27;93926.81;;;20.67;28.96
11049;BME280;5577;42.706;23.160;2023-02-19T15:01:25;93929.81;;;19.84;29.54
11049;BME280;5577;42.706;23.160;2023-02-19T15:04:21;93922.59;;;19.77;30.01
11049;BME280;5577;42.706;23.160;2023-02-19T15:07:09;93926.97;;;19.45;29.97
11049;BME280;5577;42.706;23.160;2023-02-19T15:09:59;93931.75;;;19.00;30.81
11049;BME280;5577;42.706;23.160;2023-02-19T15:12:49;93931.63;;;18.81;31.51
11049;BME280;5577;42.706;23.160;2023-02-19T15:15:37;93946.97;;;18.80;31.91
11049;BME280;5577;42.706;23.160;2023-02-19T15:18:25;93936.75;;;18.68;32.09
11049;BME280;5577;42.706;23.160;2023-02-19T15:21:36;93938.41;;;18.59;32.38
11049;BME280;5577;42.706;23.160;2023-02-19T15:24:18;93940.03;;;18.49;32.14
11049;BME280;5577;42.706;23.160;2023-02-19T15:27:02;93952.81;;;18.38;32.80
11049;BME280;5577;42.706;23.160;2023-02-19T15:29:48;93945.28;;;18.19;33.04
11049;BME280;5577;42.706;23.160;2023-02-19T15:32:33;93960.38;;;18.03;34.87
11049;BME280;5577;42.706;23.160;2023-02-19T15:35:18;93936.28;;;17.59;36.35
11049;BME280;5577;42.706;23.160;2023-02-19T15:38:02;93968.47;;;17.45;37.72
11049;BME280;5577;42.706;23.160;2023-02-19T15:40:47;93968.94;;;17.26;38.79
11049;BME280;5577;42.706;23.160;2023-02-19T15:43:48;93972.50;;;17.05;39.83
11049;BME280;5577;42.706;23.160;2023-02-19T15:46:34;93981.34;;;16.84;40.50
11049;BME280;5577;42.706;23.160;2023-02-19T15:49:32;93984.09;;;16.67;40.89
11049;BME280;5577;42.706;23.160;2023-02-19T15:52:26;93984.94;;;16.46;41.53
11049;BME280;5577;42.706;23.160;2023-02-19T15:58:18;93992.59;;;16.13;42.05
11049;BME280;5577;42.706;23.160;2023-02-19T16:01:06;93998.69;;;15.99;42.10
11049;BME280;5577;42.706;23.160;2023-02-19T16:03:55;94000.63;;;15.78;42.46
11049;BME280;5577;42.706;23.160;2023-02-19T16:06:57;94006.69;;;15.71;42.14
11049;BME280;5577;42.706;23.160;2023-02-19T16:09:42;93980.00;;;15.47;42.26
11049;BME280;5577;42.706;23.160;2023-02-19T16:12:25;94011.66;;;15.62;42.37
11049;BME280;5577;42.706;23.160;2023-02-19T16:15:13;94000.22;;;15.51;42.55
11049;BME280;5577;42.706;23.160;2023-02-19T16:17:57;94005.91;;;15.43;42.28
11049;BME280;5577;42.706;23.160;2023-02-19T16:20:46;93976.84;;;15.10;41.95
11049;BME280;5577;42.706;23.160;2023-02-19T16:23:30;94017.28;;;15.33;41.76
11049;BME280;5577;42.706;23.160;2023-02-19T16:26:14;93979.13;;;15.11;41.11
11049;BME280;5577;42.706;23.160;2023-02-19T16:28:59;94025.28;;;15.33;40.21
11049;BME280;5577;42.706;23.160;2023-02-19T16:31:47;94024.19;;;15.37;40.38
11049;BME280;5577;42.706;23.160;2023-02-19T16:34:41;94029.09;;;15.35;39.30
11049;BME280;5577;42.706;23.160;2023-02-19T16:37:38;94036.34;;;15.31;39.35
11049;BME280;5577;42.706;23.160;2023-02-19T16:45:58;94038.22;;;15.20;39.70
11049;BME280;5577;42.706;23.160;2023-02-19T16:48:42;94039.69;;;15.04;40.47
11049;BME280;5577;42.706;23.160;2023-02-19T16:51:27;94044.56;;;14.95;39.83
11049;BME280;5577;42.706;23.160;2023-02-19T16:54:11;94036.16;;;14.82;40.22
11049;BME280;5577;42.706;23.160;2023-02-19T16:56:55;94047.94;;;14.81;40.49
11049;BME280;5577;42.706;23.160;2023-02-19T16:59:40;94044.09;;;14.75;40.35
11049;BME280;5577;42.706;23.160;2023-02-19T17:02:24;94053.56;;;14.66;40.40